createdAt,value
2018-08-10T00:01:25.342Z,95.10
2018-08-10T00:03:53.989Z,95.20
2018-08-10T00:06:22.361Z,95.10
2018-08-10T00:08:50.752Z,95.40
2018-08-10T00:11:19.096Z,95.10
2018-08-10T00:13:47.514Z,95.20
2018-08-10T00:16:15.892Z,95.40
2018-08-10T00:18:44.281Z,96.00
2018-08-10T00:21:12.707Z,95.80
2018-08-10T00:23:41.187Z,95.40
2018-08-10T00:26:09.641Z,95.60
2018-08-10T00:28:38.081Z,96.00
2018-08-10T00:31:06.488Z,96.10
2018-08-10T00:33:34.962Z,96.30
2018-08-10T00:36:03.648Z,96.00
2018-08-10T00:38:32.071Z,95.80
2018-08-10T00:41:00.502Z,96.00
2018-08-10T00:43:28.945Z,95.80
2018-08-10T00:45:57.454Z,95.50
2018-08-10T00:48:25.791Z,95.60
2018-08-10T00:50:54.243Z,95.30
2018-08-10T00:53:22.635Z,95.30
2018-08-10T00:55:51.038Z,95.20
2018-08-10T00:58:19.514Z,95.20
2018-08-10T01:00:47.905Z,95.10
2018-08-10T01:03:16.383Z,95.00
2018-08-10T01:05:44.801Z,94.80
2018-08-10T01:08:13.549Z,94.80
2018-08-10T01:10:42.033Z,94.60
2018-08-10T01:13:10.439Z,94.50
2018-08-10T01:15:38.808Z,94.50
2018-08-10T01:18:07.160Z,94.50
2018-08-10T01:22:04.963Z,94.80
2018-08-10T01:24:33.356Z,94.90
2018-08-10T01:27:01.676Z,95.10
2018-08-10T01:29:30.024Z,95.30
2018-08-10T01:31:58.424Z,95.50
2018-08-10T01:34:27.121Z,95.20
2018-08-10T01:36:55.711Z,95.20
2018-08-10T01:39:24.138Z,95.40
2018-08-10T01:41:52.564Z,95.60
2018-08-10T01:44:20.998Z,95.60
2018-08-10T01:46:49.677Z,95.30
2018-08-10T01:49:18.094Z,95.50
2018-08-10T01:51:46.496Z,95.20
2018-08-10T01:54:14.946Z,95.20
2018-08-10T01:56:43.303Z,94.80
2018-08-10T01:59:11.725Z,95.00
2018-08-10T02:01:40.190Z,95.20
2018-08-10T02:04:08.600Z,95.30
2018-08-10T02:06:37.009Z,95.40
2018-08-10T02:09:07.614Z,95.50
2018-08-10T02:11:36.088Z,95.60
2018-08-10T02:14:04.570Z,96.10
2018-08-10T02:16:32.960Z,96.40
2018-08-10T02:19:01.370Z,96.80
2018-08-10T02:21:29.829Z,97.10
2018-08-10T02:23:58.253Z,97.60
2018-08-10T02:26:26.656Z,97.40
2018-08-10T02:28:55.084Z,97.40
2018-08-10T02:31:23.465Z,97.40
2018-08-10T02:33:52.610Z,97.80
2018-08-10T02:36:21.232Z,98.30
2018-08-10T02:38:49.834Z,97.60
2018-08-10T02:41:18.685Z,97.60
2018-08-10T02:43:47.727Z,97.50
2018-08-10T02:46:16.749Z,97.40
2018-08-10T02:48:45.801Z,97.30
2018-08-10T02:51:14.859Z,97.20
2018-08-10T02:53:43.983Z,97.20
2018-08-10T02:56:12.606Z,97.50
2018-08-10T02:58:40.982Z,97.50
2018-08-10T03:01:09.469Z,97.10
2018-08-10T03:03:37.923Z,97.20
2018-08-10T03:06:06.299Z,96.60
2018-08-10T03:08:34.821Z,96.70
2018-08-10T03:11:03.465Z,96.90
2018-08-10T03:13:31.844Z,97.40
2018-08-10T03:16:00.898Z,96.50
2018-08-10T03:18:29.255Z,96.70
2018-08-10T03:20:57.660Z,96.60
2018-08-10T03:23:26.091Z,96.50
2018-08-10T03:27:23.945Z,96.50
2018-08-10T03:29:52.323Z,96.90
2018-08-10T03:32:20.685Z,96.20
2018-08-10T03:34:49.119Z,96.40
2018-08-10T03:37:17.564Z,96.30
2018-08-10T03:39:45.990Z,96.00
2018-08-10T03:42:14.394Z,96.50
2018-08-10T03:44:43.171Z,96.10
2018-08-10T03:47:11.533Z,96.60
2018-08-10T03:49:39.968Z,96.00
2018-08-10T03:52:08.401Z,96.20
2018-08-10T03:54:36.772Z,96.10
2018-08-10T03:57:05.292Z,95.90
2018-08-10T03:59:33.758Z,96.40
2018-08-10T04:02:02.244Z,96.30
2018-08-10T04:04:30.717Z,96.50
2018-08-10T04:06:59.107Z,96.70
2018-08-10T04:09:27.453Z,97.10
2018-08-10T04:11:55.900Z,96.60
2018-08-10T04:14:24.300Z,96.40
2018-08-10T04:16:52.680Z,96.60
2018-08-10T04:19:21.108Z,96.40
2018-08-10T04:21:49.573Z,96.70
2018-08-10T04:24:17.989Z,96.70
2018-08-10T04:26:46.395Z,96.50
2018-08-10T04:29:14.814Z,96.20
2018-08-10T04:31:43.174Z,96.70
2018-08-10T04:34:11.621Z,96.70
2018-08-10T04:36:40.028Z,97.00
2018-08-10T04:39:10.801Z,96.90
2018-08-10T04:41:39.132Z,97.30
2018-08-10T04:44:07.584Z,97.20
2018-08-10T04:46:35.956Z,97.10
2018-08-10T04:49:04.379Z,97.00
2018-08-10T04:51:32.755Z,97.30
2018-08-10T04:54:01.119Z,97.00
2018-08-10T04:56:29.482Z,96.90
2018-08-10T04:58:57.884Z,97.00
2018-08-10T05:01:26.282Z,96.90
2018-08-10T05:03:54.736Z,97.20
2018-08-10T05:06:23.085Z,97.50
2018-08-10T05:08:51.559Z,97.30
2018-08-10T05:11:20.345Z,97.70
2018-08-10T05:13:48.735Z,97.90
2018-08-10T05:16:17.448Z,98.00
2018-08-10T05:18:45.844Z,97.70
2018-08-10T05:21:14.216Z,97.70
2018-08-10T05:23:42.549Z,97.80
2018-08-10T05:26:10.927Z,97.80
2018-08-10T05:28:39.356Z,98.00
2018-08-10T05:31:07.781Z,98.10
2018-08-10T05:33:36.321Z,98.20
2018-08-10T05:36:04.741Z,97.70
2018-08-10T05:38:33.196Z,97.60
2018-08-10T05:41:01.816Z,97.20
2018-08-10T05:43:30.250Z,97.50
2018-08-10T05:45:58.700Z,97.20
2018-08-10T05:48:27.153Z,97.60
2018-08-10T05:50:55.568Z,97.50
2018-08-10T05:53:23.963Z,97.40
2018-08-10T05:55:52.296Z,97.60
2018-08-10T05:58:20.665Z,97.70
2018-08-10T06:00:49.159Z,97.40
2018-08-10T06:03:17.509Z,97.40
2018-08-10T06:05:45.871Z,97.60
2018-08-10T06:08:14.282Z,97.30
2018-08-10T06:10:42.623Z,97.50
2018-08-10T06:13:11.113Z,97.20
2018-08-10T06:15:39.440Z,96.70
2018-08-10T06:18:07.825Z,96.30
2018-08-10T06:20:36.246Z,96.50
2018-08-10T06:23:04.622Z,96.20
2018-08-10T06:25:32.979Z,96.70
2018-08-10T06:28:01.369Z,96.30
2018-08-10T06:30:29.761Z,96.00
2018-08-10T06:32:58.121Z,95.80
2018-08-10T06:35:26.472Z,95.60
2018-08-10T06:37:54.944Z,95.60
2018-08-10T06:40:23.331Z,95.70
2018-08-10T06:42:51.714Z,95.80
2018-08-10T06:45:20.274Z,95.80
2018-08-10T06:47:48.683Z,95.00
2018-08-10T06:50:17.069Z,94.00
2018-08-10T06:52:45.589Z,94.30
2018-08-10T06:55:13.976Z,94.10
2018-08-10T06:57:42.436Z,94.30
2018-08-10T07:00:10.816Z,94.50
2018-08-10T07:02:39.258Z,93.80
2018-08-10T07:05:08.203Z,93.00
2018-08-10T07:07:36.953Z,92.30
2018-08-10T07:10:06.302Z,92.50
2018-08-10T07:12:34.750Z,92.10
2018-08-10T07:15:03.546Z,92.00
2018-08-10T07:17:31.940Z,92.20
2018-08-10T07:20:00.286Z,91.60
2018-08-10T07:22:29.136Z,90.50
2018-08-10T07:24:57.642Z,90.40
2018-08-10T07:27:26.006Z,90.70
2018-08-10T07:29:54.353Z,90.70
2018-08-10T07:32:22.741Z,89.40
2018-08-10T07:34:51.201Z,90.00
2018-08-10T07:37:19.763Z,90.20
2018-08-10T07:39:48.154Z,89.70
2018-08-10T07:42:16.694Z,88.60
2018-08-10T07:45:17.763Z,88.80
2018-08-10T07:47:46.277Z,88.50
2018-08-10T07:50:14.728Z,88.00
2018-08-10T07:52:43.064Z,88.80
2018-08-10T07:55:11.423Z,87.40
2018-08-10T07:57:39.757Z,86.40
2018-08-10T08:00:08.546Z,84.90
2018-08-10T08:02:37.468Z,85.10
2018-08-10T08:05:05.897Z,85.90
2018-08-10T08:07:34.294Z,84.70
2018-08-10T08:10:02.814Z,84.00
2018-08-10T08:12:31.283Z,84.30
2018-08-10T08:14:59.889Z,85.10
2018-08-10T08:17:28.376Z,84.10
2018-08-10T08:19:56.896Z,85.40
2018-08-10T08:22:25.297Z,84.40
2018-08-10T08:24:53.770Z,83.80
2018-08-10T08:27:22.437Z,84.20
2018-08-10T08:29:50.954Z,81.70
2018-08-10T08:32:19.410Z,83.10
2018-08-10T08:34:47.865Z,82.30
2018-08-10T08:37:16.297Z,81.20
2018-08-10T08:40:23.262Z,82.60
2018-08-10T08:42:51.879Z,81.20
2018-08-10T08:46:08.674Z,81.10
2018-08-10T08:48:52.309Z,79.70
2018-08-10T08:51:25.009Z,78.80
2018-08-10T08:54:04.946Z,78.70
2018-08-10T08:56:43.741Z,78.50
2018-08-10T08:59:12.196Z,76.20
2018-08-10T09:01:40.656Z,77.30
2018-08-10T09:04:22.242Z,76.00
2018-08-10T09:06:50.609Z,76.10
2018-08-10T09:09:30.113Z,76.20
2018-08-10T09:11:58.589Z,77.10
2018-08-10T09:14:47.971Z,75.30
2018-08-10T09:17:16.666Z,76.00
2018-08-10T09:19:45.087Z,75.50
2018-08-10T09:22:13.836Z,75.40
2018-08-10T09:24:42.624Z,75.70
2018-08-10T09:27:11.133Z,73.50
2018-08-10T09:29:39.576Z,72.80
2018-08-10T09:32:08.035Z,72.10
2018-08-10T09:34:36.538Z,71.90
2018-08-10T09:37:05.038Z,72.00
2018-08-10T09:39:33.681Z,72.20
2018-08-10T09:42:03.027Z,71.40
2018-08-10T09:44:32.044Z,72.20
2018-08-10T09:47:01.133Z,71.00
2018-08-10T09:49:32.192Z,69.20
2018-08-10T09:52:00.657Z,69.00
2018-08-10T09:54:29.342Z,67.00
2018-08-10T09:57:01.262Z,66.70
2018-08-10T09:59:30.051Z,64.70
2018-08-10T10:02:03.810Z,66.20
2018-08-10T10:04:32.601Z,66.70
2018-08-10T10:07:01.352Z,66.90
2018-08-10T10:09:30.165Z,63.90
2018-08-10T10:11:58.803Z,64.90
2018-08-10T10:14:27.219Z,64.70
2018-08-10T10:16:55.711Z,63.00
2018-08-10T10:19:24.349Z,62.30
2018-08-10T10:21:52.810Z,63.30
2018-08-10T10:24:21.202Z,61.80
2018-08-10T10:26:49.640Z,62.00
2018-08-10T10:29:18.050Z,62.10
2018-08-10T10:31:46.434Z,60.40
2018-08-10T10:34:14.817Z,61.30
2018-08-10T10:36:43.298Z,59.00
2018-08-10T10:39:13.118Z,59.10
2018-08-10T10:41:41.769Z,60.40
2018-08-10T10:44:10.590Z,59.70
2018-08-10T10:46:39.232Z,61.10
2018-08-10T10:49:07.676Z,62.90
2018-08-10T10:51:36.142Z,61.50
2018-08-10T10:54:04.613Z,60.30
2018-08-10T10:56:33.115Z,62.00
2018-08-10T10:59:01.497Z,60.90
2018-08-10T11:01:30.078Z,61.80
2018-08-10T11:03:58.499Z,61.40
2018-08-10T11:06:27.068Z,61.30
2018-08-10T11:08:55.468Z,61.70
2018-08-10T11:11:23.938Z,62.00
2018-08-10T11:13:52.451Z,61.80
2018-08-10T11:16:20.853Z,60.90
2018-08-10T11:18:49.295Z,59.00
2018-08-10T11:21:17.979Z,57.60
2018-08-10T11:23:46.397Z,57.50
2018-08-10T11:26:15.048Z,54.80
2018-08-10T11:28:43.456Z,56.20
2018-08-10T11:31:11.904Z,56.30
2018-08-10T11:33:41.575Z,55.30
2018-08-10T11:36:09.989Z,55.80
2018-08-10T11:38:39.883Z,55.20
2018-08-10T11:41:08.467Z,55.30
2018-08-10T11:43:37.117Z,55.20
2018-08-10T11:46:05.608Z,55.80
2018-08-10T11:48:34.017Z,55.90
2018-08-10T11:51:02.482Z,56.20
2018-08-10T11:53:30.877Z,56.70
2018-08-10T11:55:59.875Z,57.90
2018-08-10T11:58:29.609Z,55.90
2018-08-10T12:00:58.899Z,56.50
2018-08-10T12:03:27.298Z,57.20
2018-08-10T12:05:55.754Z,57.20
2018-08-10T12:08:24.130Z,57.90
2018-08-10T12:10:52.864Z,57.80
2018-08-10T12:13:21.832Z,58.40
2018-08-10T12:15:50.237Z,58.50
2018-08-10T12:18:18.625Z,58.80
2018-08-10T12:20:47.267Z,59.00
2018-08-10T12:23:15.662Z,58.60
2018-08-10T12:25:44.352Z,58.90
2018-08-10T12:28:12.813Z,59.00
2018-08-10T12:30:41.340Z,58.60
2018-08-10T12:33:09.814Z,57.50
2018-08-10T12:35:38.281Z,57.40
2018-08-10T12:38:06.825Z,57.90
2018-08-10T12:40:35.295Z,58.30
2018-08-10T12:43:03.783Z,58.60
2018-08-10T12:45:32.513Z,58.40
2018-08-10T12:48:01.110Z,58.60
2018-08-10T12:50:29.531Z,57.70
2018-08-10T12:52:57.910Z,58.80
2018-08-10T12:55:26.310Z,58.30
2018-08-10T12:57:54.696Z,58.40
2018-08-10T13:00:23.066Z,57.90
2018-08-10T13:02:51.554Z,60.30
2018-08-10T13:05:20.225Z,59.40
2018-08-10T13:07:48.671Z,57.90
2018-08-10T13:10:17.064Z,57.60
2018-08-10T13:12:45.456Z,57.10
2018-08-10T13:15:13.959Z,56.30
2018-08-10T13:17:42.312Z,55.40
2018-08-10T13:20:12.550Z,55.30
2018-08-10T13:22:41.273Z,55.00
2018-08-10T13:25:10.193Z,57.40
2018-08-10T13:27:38.653Z,57.60
2018-08-10T13:30:08.713Z,57.70
2018-08-10T13:32:37.181Z,61.80
2018-08-10T13:35:06.503Z,62.20
2018-08-10T13:37:35.000Z,59.90
2018-08-10T13:40:04.118Z,59.30
2018-08-10T13:42:32.700Z,59.60
2018-08-10T13:45:01.196Z,59.20
2018-08-10T13:47:29.670Z,58.40
2018-08-10T13:49:58.165Z,58.70
2018-08-10T13:52:27.611Z,57.40
2018-08-10T13:54:56.041Z,56.50
2018-08-10T13:57:24.492Z,54.20
2018-08-10T13:59:52.961Z,54.60
2018-08-10T14:02:21.436Z,52.20
2018-08-10T14:04:51.280Z,51.10
2018-08-10T14:07:20.564Z,50.40
2018-08-10T14:09:49.760Z,50.70
2018-08-10T14:12:20.699Z,50.60
2018-08-10T14:14:49.925Z,50.70
2018-08-10T14:17:19.041Z,50.80
2018-08-10T14:19:48.174Z,50.50
2018-08-10T14:22:16.949Z,51.00
2018-08-10T14:24:45.477Z,50.60
2018-08-10T14:27:13.896Z,50.10
2018-08-10T14:29:42.276Z,50.40
2018-08-10T14:32:10.715Z,50.90
2018-08-10T14:34:39.200Z,51.10
2018-08-10T14:37:07.637Z,53.00
2018-08-10T14:39:36.146Z,52.00
2018-08-10T14:42:04.680Z,51.10
2018-08-10T14:44:33.171Z,53.10
2018-08-10T14:47:01.727Z,51.90
2018-08-10T14:49:30.100Z,52.40
2018-08-10T14:51:58.512Z,52.50
2018-08-10T14:54:26.958Z,52.30
2018-08-10T14:56:55.326Z,53.00
2018-08-10T14:59:23.717Z,53.90
2018-08-10T15:01:52.668Z,54.00
2018-08-10T15:04:21.166Z,53.00
2018-08-10T15:06:49.632Z,53.30
2018-08-10T15:10:47.223Z,53.50
2018-08-10T15:13:15.956Z,53.10
2018-08-10T15:15:44.384Z,54.30
2018-08-10T15:18:13.037Z,54.40
2018-08-10T15:20:41.509Z,54.80
2018-08-10T15:23:10.051Z,54.30
2018-08-10T15:25:38.605Z,53.80
2018-08-10T15:28:07.437Z,53.80
2018-08-10T15:30:36.126Z,54.40
2018-08-10T15:33:04.703Z,54.30
2018-08-10T15:35:33.203Z,55.00
2018-08-10T15:38:01.713Z,54.40
2018-08-10T15:40:30.513Z,54.10
2018-08-10T15:42:58.973Z,53.80
2018-08-10T15:45:27.856Z,54.20
2018-08-10T15:47:56.334Z,53.40
2018-08-10T15:50:24.778Z,53.20
2018-08-10T15:52:53.461Z,53.60
2018-08-10T15:55:21.925Z,53.70
2018-08-10T15:57:51.180Z,53.60
2018-08-10T16:00:23.302Z,54.30
2018-08-10T16:02:52.099Z,54.40
2018-08-10T16:05:20.783Z,53.60
2018-08-10T16:07:49.753Z,54.40
2018-08-10T16:10:18.265Z,54.20
2018-08-10T16:12:46.705Z,53.20
2018-08-10T16:15:16.545Z,52.90
2018-08-10T16:17:45.140Z,52.80
2018-08-10T16:20:18.153Z,52.50
2018-08-10T16:22:46.774Z,53.50
2018-08-10T16:25:15.266Z,53.20
2018-08-10T16:27:44.220Z,53.60
2018-08-10T16:30:13.967Z,53.60
2018-08-10T16:32:43.200Z,53.90
2018-08-10T16:35:12.994Z,54.30
2018-08-10T16:37:42.816Z,53.50
2018-08-10T16:41:41.727Z,54.90
2018-08-10T16:44:10.491Z,54.80
2018-08-10T16:46:39.261Z,53.80
2018-08-10T16:49:07.762Z,53.70
2018-08-10T16:51:36.356Z,53.80
2018-08-10T16:54:04.940Z,53.10
2018-08-10T16:56:33.484Z,53.80
2018-08-10T16:59:01.957Z,53.70
2018-08-10T17:01:30.413Z,53.90
2018-08-10T17:03:58.903Z,52.40
2018-08-10T17:06:27.341Z,53.30
2018-08-10T17:08:55.897Z,53.60
2018-08-10T17:11:24.506Z,52.20
2018-08-10T17:13:52.944Z,51.80
2018-08-10T17:16:22.154Z,51.00
2018-08-10T17:18:50.599Z,52.10
2018-08-10T17:21:19.051Z,51.30
2018-08-10T17:23:47.505Z,50.40
2018-08-10T17:26:15.973Z,50.60
2018-08-10T17:28:44.419Z,51.80
2018-08-10T17:31:12.848Z,51.30
2018-08-10T17:33:41.370Z,51.70
2018-08-10T17:36:09.872Z,51.20
2018-08-10T17:38:38.295Z,51.10
2018-08-10T17:41:07.397Z,51.50
2018-08-10T17:43:35.843Z,51.90
2018-08-10T17:46:04.400Z,51.90
2018-08-10T17:48:32.922Z,51.60
2018-08-10T17:51:02.243Z,52.20
2018-08-10T17:53:30.987Z,52.10
2018-08-10T17:55:59.514Z,53.30
2018-08-10T17:58:28.041Z,52.60
2018-08-10T18:00:56.783Z,53.00
2018-08-10T18:03:25.302Z,52.10
2018-08-10T18:05:53.863Z,52.90
2018-08-10T18:08:22.278Z,52.30
2018-08-10T18:10:51.018Z,53.30
2018-08-10T18:13:19.648Z,52.60
2018-08-10T18:15:48.201Z,52.00
2018-08-10T18:18:16.701Z,52.60
2018-08-10T18:20:45.099Z,52.40
2018-08-10T18:23:13.868Z,51.90
2018-08-10T18:25:42.871Z,51.50
2018-08-10T18:28:11.448Z,51.50
2018-08-10T18:30:39.808Z,52.20
2018-08-10T18:33:08.199Z,51.90
2018-08-10T18:35:37.123Z,52.50
2018-08-10T18:38:05.751Z,52.10
2018-08-10T18:40:34.173Z,52.20
2018-08-10T18:43:02.591Z,51.80
2018-08-10T18:45:31.070Z,51.60
2018-08-10T18:47:59.689Z,52.40
2018-08-10T18:50:28.426Z,52.50
2018-08-10T18:52:56.821Z,52.40
2018-08-10T18:55:25.323Z,52.30
2018-08-10T18:57:53.934Z,52.60
2018-08-10T19:00:24.121Z,52.50
2018-08-10T19:02:53.186Z,53.10
2018-08-10T19:05:22.175Z,52.70
2018-08-10T19:07:51.011Z,52.80
2018-08-10T19:10:24.886Z,52.80
2018-08-10T19:12:53.294Z,53.50
2018-08-10T19:15:22.043Z,52.80
2018-08-10T19:17:50.731Z,53.00
2018-08-10T19:20:19.613Z,53.70
2018-08-10T19:22:48.664Z,53.10
2018-08-10T19:25:17.645Z,53.40
2018-08-10T19:27:46.010Z,53.20
2018-08-10T19:30:17.369Z,53.70
2018-08-10T19:32:47.397Z,53.70
2018-08-10T19:35:16.581Z,54.80
2018-08-10T19:37:45.154Z,56.40
2018-08-10T19:40:16.054Z,58.80
2018-08-10T19:42:44.909Z,60.90
2018-08-10T19:45:14.640Z,63.10
2018-08-10T19:47:43.249Z,64.30
2018-08-10T19:50:13.173Z,65.00
2018-08-10T19:52:41.897Z,66.40
2018-08-10T19:55:12.167Z,65.60
2018-08-10T19:57:40.596Z,65.70
2018-08-10T20:00:10.836Z,66.00
2018-08-10T20:02:39.300Z,65.90
2018-08-10T20:05:08.560Z,67.40
2018-08-10T20:07:37.112Z,68.90
2018-08-10T20:10:06.910Z,69.00
2018-08-10T20:12:35.645Z,70.50
2018-08-10T20:15:05.166Z,71.40
2018-08-10T20:17:33.580Z,71.00
2018-08-10T20:20:02.806Z,71.30
2018-08-10T20:22:31.569Z,71.10
2018-08-10T20:25:00.221Z,71.90
2018-08-10T20:27:29.181Z,72.40
2018-08-10T20:29:57.972Z,72.80
2018-08-10T20:32:26.619Z,72.50
2018-08-10T20:34:55.333Z,72.80
2018-08-10T20:37:23.777Z,74.30
2018-08-10T20:39:52.310Z,74.30
2018-08-10T20:42:21.067Z,74.00
2018-08-10T20:44:49.606Z,74.60
2018-08-10T20:47:18.115Z,74.80
2018-08-10T20:49:46.553Z,75.00
2018-08-10T20:52:15.123Z,75.20
2018-08-10T20:54:43.536Z,75.90
2018-08-10T20:57:12.220Z,76.60
2018-08-10T20:59:40.667Z,76.50
2018-08-10T21:02:09.172Z,78.70
2018-08-10T21:04:37.586Z,80.10
2018-08-10T21:07:06.034Z,81.40
2018-08-10T21:09:34.459Z,81.00
2018-08-10T21:12:02.887Z,80.70
2018-08-10T21:14:31.337Z,81.80
2018-08-10T21:16:59.776Z,81.60
2018-08-10T21:19:28.602Z,81.70
2018-08-10T21:21:57.016Z,81.90
2018-08-10T21:24:25.487Z,82.10
2018-08-10T21:26:53.907Z,81.40
2018-08-10T21:29:22.247Z,81.80
2018-08-10T21:31:50.629Z,81.90
2018-08-10T21:34:19.145Z,82.40
2018-08-10T21:36:47.564Z,82.80
2018-08-10T21:39:15.945Z,83.90
2018-08-10T21:41:44.457Z,85.30
2018-08-10T21:44:12.910Z,86.30
2018-08-10T21:46:41.641Z,88.60
2018-08-10T21:49:10.011Z,90.70
2018-08-10T21:51:38.423Z,92.10
2018-08-10T21:54:06.924Z,92.80
2018-08-10T21:56:35.662Z,94.10
2018-08-10T21:59:04.140Z,95.00
2018-08-10T22:01:32.624Z,95.90
2018-08-10T22:04:02.674Z,96.20
2018-08-10T22:06:32.100Z,96.50
2018-08-10T22:09:00.618Z,96.80
2018-08-10T22:11:29.040Z,97.10
2018-08-10T22:14:02.754Z,96.60
2018-08-10T22:16:36.677Z,96.90
2018-08-10T22:19:10.792Z,97.60
2018-08-10T22:21:39.567Z,98.00
2018-08-10T22:24:08.504Z,97.60
2018-08-10T22:26:37.168Z,97.90
2018-08-10T22:29:05.709Z,97.40
2018-08-10T22:31:34.143Z,98.10
2018-08-10T22:34:02.603Z,97.80
2018-08-10T22:36:30.987Z,97.40
2018-08-10T22:38:59.619Z,97.30
2018-08-10T22:41:28.020Z,97.20
2018-08-10T22:43:56.783Z,96.50
2018-08-10T22:46:25.590Z,97.20
2018-08-10T22:48:54.217Z,97.30
2018-08-10T22:51:22.930Z,97.50
2018-08-10T22:53:51.446Z,97.70
2018-08-10T22:56:19.973Z,97.70
2018-08-10T22:58:48.673Z,97.70
2018-08-10T23:01:17.434Z,98.00
2018-08-10T23:03:45.915Z,98.00
2018-08-10T23:06:14.832Z,97.60
2018-08-10T23:08:43.665Z,97.50
2018-08-10T23:11:12.370Z,97.80
2018-08-10T23:13:41.305Z,97.80
2018-08-10T23:16:09.861Z,98.20
2018-08-10T23:18:38.423Z,97.90
2018-08-10T23:21:07.805Z,98.10
2018-08-10T23:23:36.360Z,98.30
2018-08-10T23:26:04.832Z,98.50
2018-08-10T23:28:33.238Z,98.20
2018-08-10T23:31:01.621Z,98.50
2018-08-10T23:33:29.987Z,98.10
2018-08-10T23:35:58.386Z,98.40
2018-08-10T23:38:26.733Z,97.90
2018-08-10T23:40:55.150Z,98.50
2018-08-10T23:43:23.508Z,98.30
2018-08-10T23:45:51.837Z,98.20
2018-08-10T23:48:20.217Z,97.80
2018-08-10T23:50:48.520Z,97.80
2018-08-10T23:53:16.856Z,98.20
2018-08-10T23:55:45.187Z,97.90
2018-08-10T23:58:13.636Z,98.00
